Decoded Metar for KEZS ( in _UNIDENTIFIED) (IATA:N/A) | Meteo·Mobile Aviation Weather
aviador You're here:

KEZS Decoded Metar

in _UNIDENTIFIED
Report Time2019-09-21 19:15:00
UTC Time2019-09-21 19:17:57
Flight Rules mvfr MVFR
Wind190° at 03 kt
W.Decomp.*RWY 17: 2.8 kt HW 1.1 kt RCW
RWY 12: 0.9 kt HW 2.9 kt RCW
Visibility9999 m
Phenomena:N/A
Clouds:Overcast 019 Hf
Expected CloudBase > 1,200 ft AGL from Temp-Dew spread
Ceiling1,900 ft
Temp24°C (ISA +11)
Dew Point21°C (83% RH)
QNH1013 hPa
Density Alt2,375 ft
Elevation814 ft
Report Wrong Elevation
Raw Report
KEZS 211915Z AUTO 19003KT 10SM OVC019 24/21 A2992 RMK AO2
T02430210=

Extra information for KEZS:More info

Metar Taf Metar & Taf Last 4 Metars F.Rules Stats Wind Profile Meteogram Temp Stats Metar ALERT Operation Metar Decoded Social comments